Fayette, Ohio
Current Conditions -  °F | °C
As of 8:35 PM on Monday 22 Dec 2014 (Local Time) from KUSE Reporting Station
Unknown Precip Unknown Precip  
Wind Chill: 29°   Ceiling: 6000
Heat Index: 36°   Visibility: 6mi
Dew Point: 34°   Wind: 9mph
Humidity: 93%   Direction: 90°E
Pressure: 29.85"   Gusts: NA
Location:  41.67°N, 84.33°W
Report Text: KUSE 230135Z AUTO 09008KT 6SM -UP SCT032 BKN060 OVC070 02/01 A2985 RMK AO2
Loading
Personal Weather Stations






























Interactive Weather Map New forecast layout! Learn more

10-Day Weather Forecast

Advertisements
Track Severe Weather on mobile